Time;durP1;ratioP1;P1;durP2;ratioP2;P2;SDS_P1;SDS_P2;PMS_P1;PMS_P2;Temp;Humidity;BMP_temperature;BMP_pressure;BME280_temperature;BME280_humidity;BME280_pressure;Samples;Min_cycle;Max_cycle;Signal;HPM_P1;HPM_P2
2022/12/25 00:01:14;;;;;;;20.17;4.73;;;;;;;8.31;100.00;96476.19;5035172;28;20197;-71
2022/12/25 00:03:42;;;;;;;15.10;3.77;;;;;;;8.36;100.00;96475.69;5035335;28;20201;-71
2022/12/25 00:06:09;;;;;;;11.20;3.47;;;;;;;8.32;100.00;96479.63;5035983;28;20529;-71
2022/12/25 00:08:37;;;;;;;9.07;3.50;;;;;;;8.36;100.00;96487.00;5036308;28;20224;-71
2022/12/25 00:11:05;;;;;;;9.10;3.20;;;;;;;8.37;100.00;96485.22;5036985;28;20201;-71
2022/12/25 00:13:32;;;;;;;8.43;3.03;;;;;;;8.34;100.00;96480.25;5036956;28;21064;-71
2022/12/25 00:15:59;;;;;;;12.50;4.23;;;;;;;8.32;100.00;96482.25;5036583;28;20649;-71
2022/12/25 00:18:25;;;;;;;15.10;4.53;;;;;;;8.32;100.00;96484.88;5037134;28;20221;-71
2022/12/25 00:20:58;;;;;;;13.93;4.83;;;;;;;8.36;100.00;96473.88;5037816;28;20213;-72
2022/12/25 00:23:25;;;;;;;15.20;4.03;;;;;;;8.16;100.00;96474.28;5036841;28;21062;-71
2022/12/25 00:25:51;;;;;;;19.07;5.20;;;;;;;8.25;100.00;96465.47;5037375;28;20205;-72
2022/12/25 00:28:18;;;;;;;8.97;3.40;;;;;;;8.29;100.00;96459.75;5036551;28;20736;-71
2022/12/25 00:30:45;;;;;;;17.77;4.73;;;;;;;8.26;100.00;96452.19;5037536;28;20197;-71
2022/12/25 00:33:12;;;;;;;11.13;3.47;;;;;;;8.19;100.00;96455.59;5037208;28;20225;-71
2022/12/25 00:35:38;;;;;;;9.80;3.77;;;;;;;8.14;100.00;96466.56;5035839;28;20201;-71
2022/12/25 00:38:06;;;;;;;9.53;3.47;;;;;;;8.24;100.00;96450.72;5037084;28;20216;-71
2022/12/25 00:40:33;;;;;;;6.37;2.87;;;;;;;8.18;100.00;96446.88;5036231;28;20216;-71
2022/12/25 00:42:58;;;;;;;5.73;2.40;;;;;;;8.27;100.00;96439.88;5036585;28;20197;-69
2022/12/25 00:45:25;;;;;;;11.23;2.90;;;;;;;8.28;100.00;96431.84;5036527;28;20563;-70
2022/12/25 00:47:51;;;;;;;6.90;2.77;;;;;;;8.26;100.00;96435.59;5036372;28;20697;-70
2022/12/25 00:50:18;;;;;;;6.77;2.73;;;;;;;8.26;100.00;96446.09;5036567;28;20206;-70
2022/12/25 00:52:44;;;;;;;7.33;2.43;;;;;;;8.20;100.00;96449.38;5037262;28;20593;-69
2022/12/25 00:55:12;;;;;;;5.73;2.40;;;;;;;8.27;100.00;96453.00;5035766;28;20209;-70
2022/12/25 00:57:39;;;;;;;6.70;2.43;;;;;;;8.17;100.00;96457.56;5036053;28;20212;-70
2022/12/25 01:00:07;;;;;;;7.27;3.40;;;;;;;8.25;100.00;96452.34;5036761;28;20231;-72
2022/12/25 01:02:34;;;;;;;8.80;3.40;;;;;;;8.21;100.00;96453.63;5037212;28;20208;-71
2022/12/25 01:05:00;;;;;;;9.70;4.00;;;;;;;8.20;100.00;96465.94;5035619;28;20855;-71
2022/12/25 01:07:27;;;;;;;10.57;4.13;;;;;;;8.18;100.00;96457.41;5035717;28;20205;-71
2022/12/25 01:12:41;;;;;;;8.17;3.43;;;;;;;8.29;100.00;96458.94;5036303;28;20635;-71
2022/12/25 01:15:11;;;;;;;4.43;2.33;;;;;;;8.21;100.00;96457.09;5035922;28;20204;-71
2022/12/25 01:17:37;;;;;;;8.17;2.23;;;;;;;8.17;100.00;96457.56;5036573;28;20208;-71
2022/12/25 01:20:04;;;;;;;6.13;2.90;;;;;;;8.22;100.00;96461.38;5036458;28;20228;-71
2022/12/25 01:22:31;;;;;;;6.97;3.10;;;;;;;8.25;100.00;96462.84;5036584;28;20205;-71
2022/12/25 01:24:57;;;;;;;6.10;3.20;;;;;;;8.29;100.00;96464.19;5036134;28;20205;-71
2022/12/25 01:27:24;;;;;;;18.40;6.87;;;;;;;8.23;100.00;96470.06;5036447;28;20201;-71
2022/12/25 01:29:51;;;;;;;20.50;7.67;;;;;;;8.30;100.00;96476.31;5036634;28;20228;-71
2022/12/25 01:32:18;;;;;;;7.90;4.27;;;;;;;8.26;100.00;96477.63;5035973;28;20229;-72
2022/12/25 01:34:44;;;;;;;5.23;2.90;;;;;;;8.34;100.00;96467.13;5035772;28;20211;-72
2022/12/25 01:37:11;;;;;;;3.73;2.33;;;;;;;8.39;100.00;96470.13;5036419;28;20205;-71
2022/12/25 01:39:37;;;;;;;4.90;2.80;;;;;;;8.40;100.00;96467.34;5035907;28;20232;-71
2022/12/25 01:42:04;;;;;;;9.37;2.70;;;;;;;8.36;100.00;96465.19;5036320;28;20201;-71
2022/12/25 01:45:26;;;;;;;5.43;2.50;;;;;;;8.53;100.00;96468.53;5035471;28;20205;-71
2022/12/25 01:47:53;;;;;;;3.47;1.97;;;;;;;8.34;100.00;96470.59;5036693;28;20669;-70
2022/12/25 01:50:20;;;;;;;3.00;1.80;;;;;;;8.46;100.00;96476.41;5036830;28;20202;-71
2022/12/25 01:52:47;;;;;;;4.50;2.47;;;;;;;8.41;100.00;96468.16;5039360;28;21045;-71
2022/12/25 01:55:14;;;;;;;5.53;2.40;;;;;;;8.48;100.00;96469.16;5039217;28;20216;-72
2022/12/25 01:57:42;;;;;;;4.33;2.63;;;;;;;8.49;100.00;96471.66;5039187;28;20224;-71
2022/12/25 02:00:12;;;;;;;6.63;3.13;;;;;;;8.57;100.00;96474.31;5039518;28;20217;-71
2022/12/25 02:02:41;;;;;;;4.50;2.70;;;;;;;8.54;100.00;96477.22;5039758;28;21380;-71
2022/12/25 02:05:14;;;;;;;4.17;2.57;;;;;;;8.56;100.00;96478.72;5039174;28;20221;-70
2022/12/25 02:07:42;;;;;;;5.97;2.63;;;;;;;8.39;100.00;96478.00;5042981;28;20205;-70
2022/12/25 02:10:09;;;;;;;2.20;1.80;;;;;;;8.52;100.00;96481.84;5042552;28;20221;-69
2022/12/25 02:12:37;;;;;;;6.70;2.10;;;;;;;8.52;100.00;96477.41;5042231;28;20799;-69
2022/12/25 02:15:07;;;;;;;3.37;2.00;;;;;;;8.50;100.00;96471.50;5042763;28;20201;-69
2022/12/25 02:17:41;;;;;;;3.63;1.70;;;;;;;8.52;100.00;96473.97;5043070;28;20685;-71
2022/12/25 02:20:30;;;;;;;6.27;1.40;;;;;;;8.56;100.00;96476.09;5043159;28;20232;-70
2022/12/25 02:23:16;;;;;;;4.10;1.70;;;;;;;8.55;100.00;96471.84;5042675;28;20598;-69
2022/12/25 02:25:58;;;;;;;5.40;2.10;;;;;;;8.56;100.00;96465.59;5042826;28;20208;-70
2022/12/25 02:28:32;;;;;;;2.53;1.60;;;;;;;8.64;100.00;96467.44;5042711;28;20236;-69
2022/12/25 02:31:07;;;;;;;4.23;2.00;;;;;;;8.64;100.00;96457.75;5042608;28;20197;-70
2022/12/25 02:36:32;;;;;;;3.07;1.53;;;;;;;8.59;100.00;96452.16;5042136;28;20692;-70
2022/12/25 02:41:51;;;;;;;3.97;1.70;;;;;;;8.63;100.00;96460.53;5038903;28;20212;-69
2022/12/25 03:07:04;;;;;;;4.40;1.50;;;;;;;8.70;100.00;96443.16;5037771;28;20585;-71
2022/12/25 03:12:38;;;;;;;2.83;2.00;;;;;;;8.83;100.00;96439.06;5038019;28;20228;-71
2022/12/25 03:17:52;;;;;;;5.93;1.70;;;;;;;8.68;100.00;96445.94;5037934;28;20216;-72
2022/12/25 03:28:32;;;;;;;4.07;1.53;;;;;;;8.66;100.00;96426.88;5036652;28;20293;-70
2022/12/25 03:31:12;;;;;;;2.93;1.73;;;;;;;8.77;100.00;96418.72;5038697;28;20201;-70
2022/12/25 03:37:18;;;;;;;2.60;1.77;;;;;;;8.74;100.00;96426.09;5038358;28;20549;-70
2022/12/25 04:37:51;;;;;;;5.13;2.60;;;;;;;8.48;100.00;96435.03;5036765;28;20212;-69
2022/12/25 04:40:19;;;;;;;4.90;2.90;;;;;;;8.55;100.00;96436.84;5038541;28;20201;-70
2022/12/25 04:42:46;;;;;;;5.33;2.80;;;;;;;8.43;100.00;96434.72;5036912;28;20208;-70
2022/12/25 04:45:12;;;;;;;4.33;2.30;;;;;;;8.43;100.00;96418.97;5035963;28;20213;-70
2022/12/25 04:47:39;;;;;;;4.97;2.93;;;;;;;8.47;100.00;96420.28;5037576;28;20230;-69
2022/12/25 04:50:06;;;;;;;5.80;3.17;;;;;;;8.47;100.00;96421.09;5037316;28;20316;-70
2022/12/25 04:52:35;;;;;;;5.57;2.57;;;;;;;8.52;100.00;96430.13;5036804;28;20221;-69
2022/12/25 04:55:02;;;;;;;6.27;2.67;;;;;;;8.40;100.00;96419.25;5036427;28;20232;-70
2022/12/25 04:57:30;;;;;;;5.43;2.93;;;;;;;8.45;100.00;96411.72;5037084;28;20213;-69
2022/12/25 04:59:56;;;;;;;6.00;2.70;;;;;;;8.31;100.00;96412.34;5036699;28;20241;-69
2022/12/25 05:02:23;;;;;;;5.37;3.00;;;;;;;8.31;100.00;96414.97;5036937;28;20206;-68
2022/12/25 05:04:49;;;;;;;4.83;2.33;;;;;;;8.28;100.00;96410.03;5036097;28;20212;-70
2022/12/25 05:07:16;;;;;;;6.07;3.03;;;;;;;8.17;100.00;96411.16;5036366;28;20204;-68
2022/12/25 05:09:43;;;;;;;6.83;2.80;;;;;;;8.21;100.00;96415.09;5036782;28;20225;-68
2022/12/25 05:12:10;;;;;;;7.27;2.63;;;;;;;8.28;100.00;96404.78;5037063;28;20946;-68
2022/12/25 05:14:38;;;;;;;4.33;2.77;;;;;;;8.28;100.00;96389.03;5035492;28;20948;-69
2022/12/25 05:17:06;;;;;;;7.30;2.80;;;;;;;8.21;100.00;96395.88;5036569;28;20201;-69
2022/12/25 05:19:33;;;;;;;3.60;2.00;;;;;;;8.16;100.00;96391.13;5037037;28;20220;-68
2022/12/25 05:21:59;;;;;;;8.90;2.13;;;;;;;8.01;100.00;96390.03;5036754;28;20693;-68
2022/12/25 05:24:26;;;;;;;3.60;2.20;;;;;;;8.09;100.00;96394.50;5035898;28;20197;-69
2022/12/25 05:26:53;;;;;;;5.33;2.20;;;;;;;8.07;100.00;96401.69;5038862;28;20205;-69
2022/12/25 05:29:20;;;;;;;6.77;2.47;;;;;;;8.06;100.00;96400.09;5040818;28;20224;-68
2022/12/25 05:31:48;;;;;;;6.03;2.17;;;;;;;8.14;100.00;96395.69;5040413;28;20228;-70
2022/12/25 05:34:14;;;;;;;6.90;2.50;;;;;;;8.06;100.00;96397.47;5040118;28;20584;-69
2022/12/25 05:36:41;;;;;;;5.27;2.53;;;;;;;8.05;100.00;96396.63;5040959;28;20201;-69
2022/12/25 05:39:07;;;;;;;4.77;1.80;;;;;;;8.04;100.00;96402.03;5040360;28;20229;-69
2022/12/25 05:41:34;;;;;;;4.30;2.27;;;;;;;8.07;100.00;96396.44;5041080;28;20212;-69
2022/12/25 05:44:00;;;;;;;5.23;2.53;;;;;;;8.11;100.00;96406.50;5039773;28;20669;-70
2022/12/25 05:46:27;;;;;;;4.60;2.70;;;;;;;8.20;100.00;96391.63;5039989;28;20201;-68
2022/12/25 05:48:54;;;;;;;5.20;2.30;;;;;;;8.29;100.00;96383.63;5041451;28;20224;-69
2022/12/25 05:51:21;;;;;;;8.33;2.43;;;;;;;8.19;100.00;96384.75;5040967;28;20228;-69
2022/12/25 05:53:48;;;;;;;4.33;2.63;;;;;;;8.26;100.00;96377.84;5039103;28;20219;-68
2022/12/25 05:56:14;;;;;;;5.93;2.80;;;;;;;8.24;100.00;96379.84;5039788;28;20205;-68
2022/12/25 05:58:41;;;;;;;4.13;2.50;;;;;;;8.22;100.00;96377.38;5040831;28;20232;-70
2022/12/25 06:01:11;;;;;;;6.23;2.57;;;;;;;8.40;100.00;96372.84;5040010;28;20214;-69
2022/12/25 06:03:37;;;;;;;4.37;2.40;;;;;;;8.37;100.00;96356.56;5039651;28;20216;-68
2022/12/25 06:06:07;;;;;;;7.73;3.47;;;;;;;8.46;100.00;96350.34;5039969;28;20288;-70
2022/12/25 06:08:33;;;;;;;6.00;3.30;;;;;;;8.36;100.00;96370.69;5039315;28;20232;-68
2022/12/25 06:11:02;;;;;;;6.47;3.20;;;;;;;8.41;100.00;96371.81;5040384;28;20201;-69
2022/12/25 06:13:29;;;;;;;9.77;4.07;;;;;;;8.26;100.00;96380.47;5039541;28;20221;-68
2022/12/25 06:15:55;;;;;;;8.43;3.37;;;;;;;8.23;100.00;96375.56;5039422;28;20224;-69
2022/12/25 06:18:22;;;;;;;4.37;2.47;;;;;;;8.15;100.00;96365.03;5040398;28;20229;-70
2022/12/25 06:20:48;;;;;;;6.50;2.93;;;;;;;8.24;100.00;96379.84;5040203;28;20212;-69
2022/12/25 06:23:16;;;;;;;4.20;2.50;;;;;;;8.31;100.00;96367.69;5038720;28;20217;-68
2022/12/25 06:25:43;;;;;;;6.93;3.03;;;;;;;8.30;100.00;96372.16;5038857;28;20205;-69
2022/12/25 06:28:09;;;;;;;5.10;2.80;;;;;;;8.23;100.00;96365.88;5039632;28;20225;-69
2022/12/25 06:30:36;;;;;;;6.10;3.23;;;;;;;8.27;100.00;96366.38;5039181;28;20696;-69
2022/12/25 06:33:02;;;;;;;12.23;3.80;;;;;;;8.30;100.00;96355.56;5039504;28;20236;-70
2022/12/25 06:35:29;;;;;;;6.27;3.33;;;;;;;8.33;100.00;96360.50;5038853;28;20205;-70
2022/12/25 06:37:56;;;;;;;6.50;2.93;;;;;;;8.31;100.00;96341.44;5038620;28;20205;-69
2022/12/25 06:40:24;;;;;;;6.93;3.40;;;;;;;8.30;100.00;96358.19;5039194;28;20205;-70
2022/12/25 06:42:51;;;;;;;9.57;3.57;;;;;;;8.32;100.00;96362.28;5039083;28;20676;-69
2022/12/25 06:45:18;;;;;;;8.63;3.27;;;;;;;8.29;100.00;96354.75;5038797;28;20208;-68
2022/12/25 06:47:45;;;;;;;25.77;6.70;;;;;;;8.33;100.00;96356.06;5039648;28;20203;-70
2022/12/25 06:50:11;;;;;;;6.57;3.30;;;;;;;8.38;100.00;96372.16;5039272;28;20220;-69
2022/12/25 06:52:37;;;;;;;23.63;6.03;;;;;;;8.31;100.00;96367.69;5039164;28;20204;-68
2022/12/25 06:55:04;;;;;;;14.30;4.33;;;;;;;8.40;100.00;96366.75;5038490;28;20205;-69
2022/12/25 06:57:32;;;;;;;11.00;4.13;;;;;;;8.46;100.00;96372.16;5039087;28;20224;-70
2022/12/25 06:59:59;;;;;;;12.80;4.10;;;;;;;8.40;100.00;96366.75;5039710;28;20239;-69
2022/12/25 07:02:26;;;;;;;6.20;3.20;;;;;;;8.34;100.00;96377.88;5037650;28;20670;-69
2022/12/25 07:04:53;;;;;;;6.77;3.63;;;;;;;8.41;100.00;96378.91;5038154;28;20197;-68
2022/12/25 07:07:24;;;;;;;6.43;3.20;;;;;;;8.37;100.00;96377.56;5039079;28;20205;-69
2022/12/25 07:09:50;;;;;;;7.23;3.60;;;;;;;8.36;100.00;96368.06;5038454;28;20224;-69
2022/12/25 07:12:19;;;;;;;6.83;3.47;;;;;;;8.45;100.00;96375.78;5038678;28;20205;-69
2022/12/25 07:14:48;;;;;;;7.10;3.73;;;;;;;8.50;100.00;96384.84;5038570;28;20225;-70
2022/12/25 07:17:15;;;;;;;5.83;3.00;;;;;;;8.47;100.00;96379.06;5035940;28;20225;-68
2022/12/25 07:19:42;;;;;;;10.30;3.47;;;;;;;8.46;100.00;96377.41;5036576;28;20322;-70
2022/12/25 07:22:08;;;;;;;5.70;2.90;;;;;;;8.40;100.00;96380.72;5039594;28;20208;-69
2022/12/25 07:24:35;;;;;;;5.27;3.07;;;;;;;8.48;100.00;96383.34;5042552;28;20255;-70
2022/12/25 07:27:01;;;;;;;7.57;3.27;;;;;;;8.44;100.00;96368.06;5038225;28;20201;-70
2022/12/25 07:29:28;;;;;;;5.73;3.23;;;;;;;8.38;100.00;96376.59;5040307;28;20240;-70
2022/12/25 07:31:56;;;;;;;6.90;3.50;;;;;;;8.45;100.00;96381.03;5041520;28;20197;-69
2022/12/25 07:34:22;;;;;;;6.93;3.50;;;;;;;8.34;100.00;96373.47;5040268;28;20275;-69
2022/12/25 07:36:49;;;;;;;8.93;3.60;;;;;;;8.37;100.00;96378.38;5040799;28;20238;-71
2022/12/25 07:39:16;;;;;;;5.97;3.43;;;;;;;8.32;100.00;96382.47;5038654;28;20232;-70
2022/12/25 07:41:42;;;;;;;5.60;2.87;;;;;;;8.45;100.00;96374.97;5038359;28;20208;-70
2022/12/25 07:44:09;;;;;;;7.33;2.60;;;;;;;9.27;100.00;96369.44;5037940;28;20220;-70
2022/12/25 07:46:35;;;;;;;11.57;3.50;;;;;;;9.71;100.00;96369.69;5038235;28;20209;-70
2022/12/25 07:49:03;;;;;;;8.20;3.47;;;;;;;9.99;100.00;96372.75;5037720;28;21019;-70
2022/12/25 07:51:30;;;;;;;7.73;3.23;;;;;;;10.22;100.00;96379.75;5037313;28;20209;-70
2022/12/25 07:53:57;;;;;;;6.40;3.37;;;;;;;10.63;100.00;96368.03;5036829;28;20221;-70
2022/12/25 07:56:23;;;;;;;5.80;3.63;;;;;;;10.74;100.00;96359.69;5037231;28;20213;-70
2022/12/25 07:58:50;;;;;;;7.30;2.93;;;;;;;10.97;100.00;96364.81;5039403;28;20221;-69
2022/12/25 08:01:19;;;;;;;7.93;3.47;;;;;;;10.97;100.00;96370.06;5036611;28;20212;-70
2022/12/25 08:03:49;;;;;;;8.00;3.77;;;;;;;10.82;100.00;96372.81;5035705;28;20403;-70
2022/12/25 08:06:17;;;;;;;8.53;4.13;;;;;;;10.57;100.00;96363.44;5041449;28;20209;-70
2022/12/25 08:08:43;;;;;;;7.70;3.93;;;;;;;10.16;100.00;96372.53;5039226;28;20221;-70
2022/12/25 08:11:10;;;;;;;13.73;4.27;;;;;;;9.91;100.00;96359.59;5039536;28;20216;-69
2022/12/25 08:13:37;;;;;;;8.00;3.97;;;;;;;9.75;100.00;96371.00;5038675;28;20228;-69
2022/12/25 08:16:07;;;;;;;12.33;4.73;;;;;;;9.70;100.00;96373.31;5038546;28;20209;-70
2022/12/25 08:18:35;;;;;;;8.03;3.83;;;;;;;9.46;100.00;96379.63;5039385;28;20225;-70
2022/12/25 08:21:02;;;;;;;8.70;3.90;;;;;;;9.58;100.00;96379.09;5039509;28;20236;-69
2022/12/25 08:23:33;;;;;;;8.13;4.20;;;;;;;9.58;100.00;96358.03;5035722;28;20708;-71
2022/12/25 08:25:59;;;;;;;8.50;4.30;;;;;;;9.46;100.00;96361.22;5039160;28;20202;-69
2022/12/25 08:28:26;;;;;;;9.97;5.03;;;;;;;9.51;100.00;96361.50;5040193;28;20225;-70
2022/12/25 08:30:53;;;;;;;13.53;6.40;;;;;;;9.57;100.00;96355.59;5038579;28;20197;-69
2022/12/25 08:33:19;;;;;;;17.40;7.53;;;;;;;9.67;100.00;96364.94;5038302;28;20205;-70
2022/12/25 08:35:46;;;;;;;16.47;7.33;;;;;;;9.69;100.00;96355.06;5037813;28;20189;-70
2022/12/25 08:38:12;;;;;;;15.23;6.43;;;;;;;9.67;100.00;96359.66;5037993;28;21064;-69
2022/12/25 08:40:40;;;;;;;12.60;4.87;;;;;;;9.86;100.00;96357.50;5036339;28;20201;-71
2022/12/25 08:43:07;;;;;;;8.27;4.70;;;;;;;9.83;100.00;96354.38;5036718;28;21042;-71
2022/12/25 08:45:33;;;;;;;8.40;4.73;;;;;;;9.88;100.00;96354.69;5034762;28;21139;-71
2022/12/25 08:48:01;;;;;;;11.87;4.63;;;;;;;9.90;100.00;96353.53;5036321;28;20205;-71
2022/12/25 08:50:27;;;;;;;8.43;4.60;;;;;;;9.92;100.00;96356.78;5035523;28;20200;-68
2022/12/25 08:52:54;;;;;;;8.77;4.33;;;;;;;9.95;100.00;96366.16;5035888;28;20764;-72
2022/12/25 08:55:20;;;;;;;10.77;4.10;;;;;;;9.99;100.00;96360.44;5035000;28;20574;-71
2022/12/25 08:57:51;;;;;;;10.13;4.60;;;;;;;10.16;100.00;96366.47;5035833;28;20205;-71
2022/12/25 09:00:19;;;;;;;9.57;4.33;;;;;;;10.11;100.00;96372.22;5035092;28;20213;-72
2022/12/25 09:02:45;;;;;;;11.87;4.97;;;;;;;10.25;100.00;96365.44;5035349;28;21129;-71
2022/12/25 09:05:12;;;;;;;8.47;4.50;;;;;;;10.14;100.00;96365.78;5034691;28;20197;-71
2022/12/25 09:07:38;;;;;;;10.73;4.53;;;;;;;10.14;100.00;96350.81;5035589;28;20216;-71
2022/12/25 09:10:06;;;;;;;8.80;4.07;;;;;;;10.17;100.00;96353.13;5035260;28;20732;-69
2022/12/25 09:12:33;;;;;;;6.90;4.27;;;;;;;10.26;100.00;96352.09;5034078;28;20202;-70
2022/12/25 09:15:01;;;;;;;6.03;3.63;;;;;;;10.36;100.00;96344.75;5034458;28;20225;-70
2022/12/25 09:17:27;;;;;;;6.03;3.80;;;;;;;10.41;100.00;96358.25;5035622;28;20211;-71
2022/12/25 09:19:54;;;;;;;10.03;4.00;;;;;;;10.41;100.00;96364.34;5035527;28;20618;-71
2022/12/25 09:22:20;;;;;;;10.37;5.57;;;;;;;10.40;100.00;96362.69;5035312;28;20226;-71
2022/12/25 09:24:47;;;;;;;7.00;4.03;;;;;;;10.45;100.00;96372.69;5034268;28;20744;-71
2022/12/25 09:27:13;;;;;;;8.00;4.13;;;;;;;10.40;100.00;96370.59;5035841;28;20680;-71
2022/12/25 09:29:40;;;;;;;9.07;4.10;;;;;;;10.33;100.00;96367.03;5035870;28;20600;-70
2022/12/25 09:32:08;;;;;;;7.83;4.40;;;;;;;10.41;100.00;96368.78;5036796;28;20197;-70
2022/12/25 09:34:35;;;;;;;14.20;7.60;;;;;;;10.37;100.00;96362.22;5034751;28;20217;-71
2022/12/25 09:37:02;;;;;;;7.57;4.10;;;;;;;10.29;100.00;96367.53;5032838;28;20197;-70
2022/12/25 09:39:28;;;;;;;6.27;3.80;;;;;;;10.37;100.00;96363.06;5033909;28;20229;-70
2022/12/25 09:41:59;;;;;;;7.30;3.93;;;;;;;10.50;100.00;96357.19;5036503;28;20729;-69
2022/12/25 09:44:29;;;;;;;7.40;3.93;;;;;;;10.49;100.00;96350.31;5036188;28;20980;-71
2022/12/25 09:46:59;;;;;;;5.87;3.60;;;;;;;10.47;100.00;96347.03;5034618;28;20571;-71
2022/12/25 09:49:35;;;;;;;8.27;3.90;;;;;;;10.68;100.00;96336.66;5034567;28;20243;-71
2022/12/25 09:52:07;;;;;;;5.60;3.70;;;;;;;10.69;100.00;96328.59;5036063;28;21025;-70
2022/12/25 09:54:41;;;;;;;7.13;3.53;;;;;;;10.72;100.00;96324.81;5036839;28;20236;-70
2022/12/25 09:57:11;;;;;;;12.47;3.57;;;;;;;10.81;100.00;96321.91;5037694;28;20689;-70
2022/12/25 09:59:38;;;;;;;5.97;3.73;;;;;;;10.61;100.00;96323.38;5037726;28;20221;-70
2022/12/25 10:02:27;;;;;;;7.73;4.07;;;;;;;10.91;100.00;96313.75;5033522;28;20225;-69
2022/12/25 10:05:12;;;;;;;5.97;3.80;;;;;;;10.99;100.00;96317.16;5036427;28;20208;-70
2022/12/25 10:07:48;;;;;;;7.43;3.60;;;;;;;10.93;100.00;96310.78;5037034;28;20205;-69
2022/12/25 10:10:33;;;;;;;10.17;5.33;;;;;;;11.01;100.00;96312.53;5036326;28;20221;-69
2022/12/25 10:13:08;;;;;;;9.30;5.07;;;;;;;11.04;100.00;96320.91;5038073;28;20811;-70
2022/12/25 10:15:43;;;;;;;8.53;4.70;;;;;;;11.13;100.00;96319.84;5039900;28;20603;-70
2022/12/25 10:18:33;;;;;;;10.00;5.17;;;;;;;11.29;100.00;96319.69;5040531;28;20243;-70
2022/12/25 10:21:04;;;;;;;8.60;4.87;;;;;;;11.35;100.00;96321.59;5040913;28;20209;-70
2022/12/25 10:23:35;;;;;;;6.10;3.73;;;;;;;11.41;100.00;96320.09;5040932;28;20201;-70
2022/12/25 10:26:03;;;;;;;6.27;3.80;;;;;;;11.30;100.00;96315.22;5040845;28;20209;-69
2022/12/25 10:28:36;;;;;;;4.10;2.70;;;;;;;11.50;100.00;96322.47;5041692;28;20680;-70
2022/12/25 10:31:17;;;;;;;8.17;3.40;;;;;;;11.48;100.00;96323.63;5042005;28;20201;-70
2022/12/25 10:33:43;;;;;;;8.20;4.40;;;;;;;11.48;100.00;96324.47;5041271;28;20193;-70
2022/12/25 10:36:12;;;;;;;6.90;3.67;;;;;;;11.53;100.00;96322.09;5041448;28;20220;-70
2022/12/25 10:38:39;;;;;;;4.87;2.97;;;;;;;11.43;100.00;96304.88;5041676;28;20701;-70
2022/12/25 10:41:18;;;;;;;4.63;2.80;;;;;;;11.76;100.00;96302.56;5038297;28;20689;-71
2022/12/25 10:43:49;;;;;;;5.50;3.23;;;;;;;11.60;100.00;96312.50;5038001;28;20723;-71
2022/12/25 10:46:16;;;;;;;6.33;3.20;;;;;;;11.69;100.00;96300.84;5038610;28;20205;-71
2022/12/25 10:48:46;;;;;;;6.03;3.00;;;;;;;11.70;100.00;96297.22;5036596;28;20221;-71
2022/12/25 10:51:25;;;;;;;7.67;4.50;;;;;;;11.71;100.00;96296.19;5037595;28;20212;-71
2022/12/25 10:53:52;;;;;;;5.27;3.20;;;;;;;11.44;100.00;96295.97;5038049;28;20572;-71
2022/12/25 10:56:19;;;;;;;5.90;3.43;;;;;;;11.57;100.00;96284.63;5038158;28;20217;-71
2022/12/25 10:58:46;;;;;;;5.23;3.17;;;;;;;11.75;100.00;96300.94;5037845;28;20217;-71
2022/12/25 11:01:13;;;;;;;5.57;3.23;;;;;;;11.80;100.00;96292.44;5039247;28;20214;-71
2022/12/25 11:03:43;;;;;;;4.10;2.47;;;;;;;11.89;100.00;96291.34;5037262;28;20209;-71
2022/12/25 11:06:22;;;;;;;5.77;3.27;;;;;;;11.72;100.00;96285.47;5038234;28;20202;-71
2022/12/25 11:08:53;;;;;;;4.93;3.07;;;;;;;11.87;100.00;96273.06;5039386;28;20583;-71
2022/12/25 11:11:20;;;;;;;4.83;3.10;;;;;;;11.91;100.00;96258.47;5037088;28;20736;-71
2022/12/25 11:13:50;;;;;;;7.10;3.57;;;;;;;11.80;100.00;96266.88;5037826;28;20803;-71
2022/12/25 11:16:28;;;;;;;5.50;3.63;;;;;;;12.03;100.00;96258.81;5038899;28;20235;-71
2022/12/25 11:18:55;;;;;;;5.83;3.30;;;;;;;11.89;100.00;96259.66;5038619;28;20216;-71
2022/12/25 11:21:29;;;;;;;7.30;3.40;;;;;;;12.13;100.00;96262.00;5038307;28;20207;-71
2022/12/25 11:23:58;;;;;;;4.93;3.17;;;;;;;11.96;100.00;96250.00;5037387;28;20200;-71
2022/12/25 11:26:26;;;;;;;4.87;3.40;;;;;;;12.03;100.00;96246.44;5038270;28;20209;-71
2022/12/25 11:28:54;;;;;;;12.27;3.00;;;;;;;12.15;100.00;96250.25;5038020;28;20221;-71
2022/12/25 11:31:23;;;;;;;4.07;2.70;;;;;;;12.22;100.00;96240.56;5037911;28;20262;-71
2022/12/25 11:33:54;;;;;;;5.87;3.70;;;;;;;12.34;100.00;96237.22;5036953;28;21174;-71
2022/12/25 11:36:29;;;;;;;4.17;3.00;;;;;;;12.43;100.00;96240.59;5036502;28;20263;-71
2022/12/25 11:38:56;;;;;;;6.40;3.17;;;;;;;12.24;100.00;96234.09;5038543;28;20304;-71
2022/12/25 11:41:30;;;;;;;5.87;2.90;;;;;;;12.49;100.00;96235.38;5038232;28;20224;-71
2022/12/25 11:44:03;;;;;;;6.67;3.30;;;;;;;12.31;100.00;96229.69;5037523;28;20200;-71
2022/12/25 11:46:37;;;;;;;6.37;3.17;;;;;;;12.55;100.00;96224.06;5036654;28;20258;-71
2022/12/25 11:49:07;;;;;;;4.47;2.60;;;;;;;12.72;100.00;96221.97;5037778;28;20260;-71
2022/12/25 11:51:38;;;;;;;7.75;3.90;;;;;;;12.90;100.00;96220.50;5038005;28;20247;-71
2022/12/25 11:54:16;;;;;;;5.50;2.97;;;;;;;12.94;100.00;96213.81;5037121;28;20201;-72
2022/12/25 11:56:43;;;;;;;14.63;6.00;;;;;;;13.01;100.00;96196.19;5037461;28;20220;-71
2022/12/25 11:59:17;;;;;;;22.43;8.10;;;;;;;12.96;100.00;96209.19;5037389;28;20228;-71
2022/12/25 12:01:48;;;;;;;15.95;6.35;;;;;;;13.03;100.00;96205.53;5037607;28;20204;-71
2022/12/25 12:04:21;;;;;;;8.25;3.60;;;;;;;13.02;100.00;96209.22;5037339;28;20802;-71
2022/12/25 12:06:55;;;;;;;5.35;3.03;;;;;;;13.16;100.00;96207.47;5037577;28;20205;-71
2022/12/25 12:09:36;;;;;;;4.03;2.53;;;;;;;13.24;100.00;96194.09;5037199;28;20240;-71
2022/12/25 12:12:08;;;;;;;4.10;2.83;;;;;;;13.31;100.00;96200.25;5037558;28;20227;-71
2022/12/25 12:14:46;;;;;;;5.10;2.80;;;;;;;13.33;100.00;96195.56;5036837;28;20232;-71
2022/12/25 12:17:15;;;;;;;4.32;2.67;;;;;;;13.23;100.00;96189.81;5037792;28;20677;-70
2022/12/25 12:19:42;;;;;;;3.47;2.50;;;;;;;13.38;100.00;96191.34;5036389;28;20235;-70
2022/12/25 12:22:19;;;;;;;3.97;2.17;;;;;;;13.90;100.00;96199.53;5036643;28;20216;-71
2022/12/25 12:24:53;;;;;;;5.95;2.92;;;;;;;14.03;100.00;96187.16;5035251;28;20299;-71
2022/12/25 12:27:25;;;;;;;4.75;2.75;;;;;;;13.86;100.00;96193.81;5037633;28;20208;-70
2022/12/25 12:29:54;;;;;;;7.63;3.38;;;;;;;13.91;100.00;96195.88;5036380;28;20241;-70
2022/12/25 12:32:29;;;;;;;4.43;2.50;;;;;;;13.92;100.00;96190.38;5036657;28;20209;-70
2022/12/25 12:34:57;;;;;;;4.03;2.50;;;;;;;14.02;100.00;96186.31;5036387;28;20232;-70
2022/12/25 12:37:29;;;;;;;4.95;2.85;;;;;;;14.13;100.00;96185.78;5035707;28;20220;-70
2022/12/25 12:39:56;;;;;;;3.78;2.60;;;;;;;14.01;100.00;96178.56;5036824;28;20221;-69
2022/12/25 12:42:25;;;;;;;5.55;3.03;;;;;;;14.35;100.00;96176.66;5037504;28;20213;-70
2022/12/25 12:44:55;;;;;;;4.05;2.63;;;;;;;14.15;100.00;96159.09;5034746;28;20591;-71
2022/12/25 12:47:32;;;;;;;5.47;2.40;;;;;;;14.60;100.00;96139.75;5037168;28;20206;-71
2022/12/25 12:50:00;;;;;;;4.80;2.63;;;;;;;14.53;99.00;96133.66;5037542;28;20225;-71
2022/12/25 12:52:34;;;;;;;3.45;2.13;;;;;;;15.05;100.00;96123.84;5036875;28;20211;-71
2022/12/25 12:55:04;;;;;;;4.15;2.15;;;;;;;15.29;100.00;96111.53;5035449;28;20224;-71
2022/12/25 12:57:34;;;;;;;3.30;2.15;;;;;;;15.42;97.54;96116.00;5035994;28;20205;-71
2022/12/25 13:00:02;;;;;;;3.25;2.20;;;;;;;15.58;96.91;96121.66;5036266;28;20229;-72
2022/12/25 13:02:55;;;;;;;3.08;2.30;;;;;;;15.59;95.66;96122.47;5037270;28;20209;-71
2022/12/25 13:05:34;;;;;;;4.28;2.85;;;;;;;15.24;94.44;96119.31;5035701;28;20216;-71
2022/12/25 13:08:11;;;;;;;5.22;2.60;;;;;;;14.95;95.41;96132.19;5035523;28;20993;-71
2022/12/25 13:10:44;;;;;;;3.35;2.50;;;;;;;14.44;98.94;96130.38;5035762;28;20204;-72
2022/12/25 13:13:17;;;;;;;4.65;2.65;;;;;;;14.44;99.70;96132.22;5036418;28;20220;-71
2022/12/25 13:15:46;;;;;;;3.85;2.25;;;;;;;14.37;100.00;96145.47;5034413;28;21047;-71
2022/12/25 13:18:14;;;;;;;3.85;2.33;;;;;;;14.29;100.00;96144.84;5034560;28;20713;-69
2022/12/25 13:20:46;;;;;;;5.25;2.42;;;;;;;14.33;100.00;96143.41;5035583;28;20215;-68
2022/12/25 13:23:23;;;;;;;3.85;2.63;;;;;;;14.32;100.00;96136.47;5033115;28;20205;-68
2022/12/25 13:25:52;;;;;;;4.05;2.50;;;;;;;14.16;100.00;96142.16;5033327;28;20669;-70